sensor_id;sensor_type;location;lat;lon;timestamp;pressure;altitude;pressure_sealevel;temperature;humidity
18749;BME280;9503;53.560;10.246;2024-02-28T00:01:01;101274.56;;;11.18;60.59
18749;BME280;9503;53.560;10.246;2024-02-28T00:03:28;101286.19;;;10.66;61.25
18749;BME280;9503;53.560;10.246;2024-02-28T00:05:57;101287.38;;;10.13;62.99
18749;BME280;9503;53.560;10.246;2024-02-28T00:08:23;101281.16;;;10.52;62.46
18749;BME280;9503;53.560;10.246;2024-02-28T00:10:50;101291.78;;;10.59;63.34
18749;BME280;9503;53.560;10.246;2024-02-28T00:13:17;101289.53;;;10.35;62.48
18749;BME280;9503;53.560;10.246;2024-02-28T00:15:46;101293.34;;;10.27;64.24
18749;BME280;9503;53.560;10.246;2024-02-28T00:18:13;101290.31;;;10.64;63.63
18749;BME280;9503;53.560;10.246;2024-02-28T00:20:40;101280.53;;;10.27;64.24
18749;BME280;9503;53.560;10.246;2024-02-28T00:23:06;101278.31;;;10.63;62.35
18749;BME280;9503;53.560;10.246;2024-02-28T00:25:33;101283.19;;;10.58;62.81
18749;BME280;9503;53.560;10.246;2024-02-28T00:28:00;101278.91;;;10.00;63.08
18749;BME280;9503;53.560;10.246;2024-02-28T00:30:26;101282.81;;;9.80;64.99
18749;BME280;9503;53.560;10.246;2024-02-28T00:32:55;101274.78;;;9.46;65.87
18749;BME280;9503;53.560;10.246;2024-02-28T00:35:21;101278.50;;;9.51;65.57
18749;BME280;9503;53.560;10.246;2024-02-28T00:37:48;101275.28;;;9.68;64.62
18749;BME280;9503;53.560;10.246;2024-02-28T00:40:15;101265.69;;;9.79;64.72
18749;BME280;9503;53.560;10.246;2024-02-28T00:42:41;101271.72;;;10.37;62.31
18749;BME280;9503;53.560;10.246;2024-02-28T00:45:08;101267.94;;;9.59;64.18
18749;BME280;9503;53.560;10.246;2024-02-28T00:47:35;101275.22;;;9.25;65.12
18749;BME280;9503;53.560;10.246;2024-02-28T00:50:05;101274.13;;;9.35;64.71
18749;BME280;9503;53.560;10.246;2024-02-28T00:52:31;101261.09;;;9.73;64.69
18749;BME280;9503;53.560;10.246;2024-02-28T00:54:58;101253.84;;;10.23;61.90
18749;BME280;9503;53.560;10.246;2024-02-28T00:57:25;101259.94;;;10.55;61.70
18749;BME280;9503;53.560;10.246;2024-02-28T00:59:51;101260.84;;;9.98;61.60
18749;BME280;9503;53.560;10.246;2024-02-28T01:02:19;101262.75;;;9.17;63.45
18749;BME280;9503;53.560;10.246;2024-02-28T01:04:46;101254.28;;;9.18;64.86
18749;BME280;9503;53.560;10.246;2024-02-28T01:07:14;101263.09;;;10.07;61.27
18749;BME280;9503;53.560;10.246;2024-02-28T01:09:41;101258.50;;;10.16;60.96
18749;BME280;9503;53.560;10.246;2024-02-28T01:12:08;101257.38;;;10.26;61.79
18749;BME280;9503;53.560;10.246;2024-02-28T01:14:34;101254.28;;;9.18;61.88
18749;BME280;9503;53.560;10.246;2024-02-28T01:17:01;101256.75;;;9.16;64.84
18749;BME280;9503;53.560;10.246;2024-02-28T01:19:27;101255.34;;;8.28;65.97
18749;BME280;9503;53.560;10.246;2024-02-28T01:21:54;101260.69;;;9.52;63.38
18749;BME280;9503;53.560;10.246;2024-02-28T01:24:22;101252.63;;;9.18;63.87
18749;BME280;9503;53.560;10.246;2024-02-28T01:26:49;101249.53;;;9.24;63.93
18749;BME280;9503;53.560;10.246;2024-02-28T01:29:16;101253.84;;;9.38;63.29
18749;BME280;9503;53.560;10.246;2024-02-28T01:31:42;101256.81;;;9.18;64.02
18749;BME280;9503;53.560;10.246;2024-02-28T01:34:09;101255.88;;;9.44;64.14
18749;BME280;9503;53.560;10.246;2024-02-28T01:36:36;101248.53;;;9.63;63.81
18749;BME280;9503;53.560;10.246;2024-02-28T01:39:03;101250.75;;;9.16;63.49
18749;BME280;9503;53.560;10.246;2024-02-28T01:41:31;101246.84;;;8.94;64.75
18749;BME280;9503;53.560;10.246;2024-02-28T01:43:57;101246.50;;;9.57;63.67
18749;BME280;9503;53.560;10.246;2024-02-28T01:46:25;101243.09;;;9.72;63.08
18749;BME280;9503;53.560;10.246;2024-02-28T01:48:53;101245.28;;;9.37;62.77
18749;BME280;9503;53.560;10.246;2024-02-28T01:51:21;101238.34;;;9.50;62.92
18749;BME280;9503;53.560;10.246;2024-02-28T01:53:48;101234.63;;;9.45;63.66
18749;BME280;9503;53.560;10.246;2024-02-28T01:56:16;101233.63;;;8.60;65.31
18749;BME280;9503;53.560;10.246;2024-02-28T01:58:46;101236.13;;;8.73;65.54
18749;BME280;9503;53.560;10.246;2024-02-28T02:01:14;101230.53;;;8.79;65.87
18749;BME280;9503;53.560;10.246;2024-02-28T02:03:42;101232.09;;;9.31;64.68
18749;BME280;9503;53.560;10.246;2024-02-28T02:06:09;101247.72;;;9.49;62.94
18749;BME280;9503;53.560;10.246;2024-02-28T02:08:37;101245.31;;;9.52;63.43
18749;BME280;9503;53.560;10.246;2024-02-28T02:11:04;101234.28;;;9.96;63.04
18749;BME280;9503;53.560;10.246;2024-02-28T02:13:31;101237.22;;;10.17;61.93
18749;BME280;9503;53.560;10.246;2024-02-28T02:15:59;101234.34;;;9.97;61.88
18749;BME280;9503;53.560;10.246;2024-02-28T02:18:25;101239.22;;;8.54;64.66
18749;BME280;9503;53.560;10.246;2024-02-28T02:20:58;101246.56;;;8.90;65.10
18749;BME280;9503;53.560;10.246;2024-02-28T02:23:30;101237.63;;;9.24;63.24
18749;BME280;9503;53.560;10.246;2024-02-28T02:25:57;101242.91;;;8.86;64.98
18749;BME280;9503;53.560;10.246;2024-02-28T02:28:23;101248.34;;;8.77;65.13
18749;BME280;9503;53.560;10.246;2024-02-28T02:30:50;101245.00;;;8.52;65.81
18749;BME280;9503;53.560;10.246;2024-02-28T02:33:16;101246.97;;;8.69;65.96
18749;BME280;9503;53.560;10.246;2024-02-28T02:35:43;101253.16;;;8.86;65.09
18749;BME280;9503;53.560;10.246;2024-02-28T02:38:10;101255.38;;;9.49;63.36
18749;BME280;9503;53.560;10.246;2024-02-28T02:40:38;101255.25;;;9.33;63.93
18749;BME280;9503;53.560;10.246;2024-02-28T02:43:04;101255.22;;;9.61;62.08
18749;BME280;9503;53.560;10.246;2024-02-28T02:45:31;101258.56;;;8.91;63.91
18749;BME280;9503;53.560;10.246;2024-02-28T02:47:57;101253.06;;;8.58;64.83
18749;BME280;9503;53.560;10.246;2024-02-28T02:50:24;101256.69;;;8.88;65.74
18749;BME280;9503;53.560;10.246;2024-02-28T02:52:50;101260.47;;;9.62;63.39
18749;BME280;9503;53.560;10.246;2024-02-28T02:55:17;101268.16;;;9.21;65.24
18749;BME280;9503;53.560;10.246;2024-02-28T02:57:45;101262.81;;;9.59;62.22
18749;BME280;9503;53.560;10.246;2024-02-28T03:00:12;101262.22;;;8.68;65.66
18749;BME280;9503;53.560;10.246;2024-02-28T03:02:39;101266.50;;;8.95;65.50
18749;BME280;9503;53.560;10.246;2024-02-28T03:05:06;101270.91;;;9.52;64.33
18749;BME280;9503;53.560;10.246;2024-02-28T03:07:33;101264.50;;;9.59;63.00
18749;BME280;9503;53.560;10.246;2024-02-28T03:09:59;101261.06;;;9.58;62.63
18749;BME280;9503;53.560;10.246;2024-02-28T03:12:27;101256.59;;;8.73;65.45
18749;BME280;9503;53.560;10.246;2024-02-28T03:14:55;101262.44;;;9.53;63.45
18749;BME280;9503;53.560;10.246;2024-02-28T03:17:22;101255.22;;;8.52;65.54
18749;BME280;9503;53.560;10.246;2024-02-28T03:19:49;101261.44;;;7.79;68.13
18749;BME280;9503;53.560;10.246;2024-02-28T03:22:15;101268.44;;;7.45;69.59
18749;BME280;9503;53.560;10.246;2024-02-28T03:24:42;101271.66;;;8.17;67.86
18749;BME280;9503;53.560;10.246;2024-02-28T03:27:09;101271.75;;;8.19;67.84
18749;BME280;9503;53.560;10.246;2024-02-28T03:29:35;101269.66;;;8.51;67.33
18749;BME280;9503;53.560;10.246;2024-02-28T03:32:04;101272.25;;;8.26;67.17
18749;BME280;9503;53.560;10.246;2024-02-28T03:34:31;101268.81;;;9.32;66.80
18749;BME280;9503;53.560;10.246;2024-02-28T03:36:57;101271.09;;;9.27;65.38
18749;BME280;9503;53.560;10.246;2024-02-28T03:39:24;101279.50;;;8.45;67.04
18749;BME280;9503;53.560;10.246;2024-02-28T03:41:51;101280.69;;;9.45;65.22
18749;BME280;9503;53.560;10.246;2024-02-28T03:44:17;101273.72;;;8.74;66.30
18749;BME280;9503;53.560;10.246;2024-02-28T03:46:44;101277.75;;;9.38;65.63
18749;BME280;9503;53.560;10.246;2024-02-28T03:49:12;101276.47;;;9.32;64.80
18749;BME280;9503;53.560;10.246;2024-02-28T03:51:39;101272.44;;;9.35;64.78
18749;BME280;9503;53.560;10.246;2024-02-28T03:54:06;101271.44;;;8.92;65.95
18749;BME280;9503;53.560;10.246;2024-02-28T03:56:33;101276.78;;;9.36;65.98
18749;BME280;9503;53.560;10.246;2024-02-28T03:59:00;101281.25;;;9.54;65.42
18749;BME280;9503;53.560;10.246;2024-02-28T04:01:27;101278.44;;;8.68;65.62
18749;BME280;9503;53.560;10.246;2024-02-28T04:03:54;101274.69;;;9.72;64.89
18749;BME280;9503;53.560;10.246;2024-02-28T04:06:21;101278.09;;;10.01;63.12
18749;BME280;9503;53.560;10.246;2024-02-28T04:08:48;101273.75;;;9.85;63.20
18749;BME280;9503;53.560;10.246;2024-02-28T04:11:15;101274.75;;;10.02;62.23
18749;BME280;9503;53.560;10.246;2024-02-28T04:13:41;101267.69;;;10.12;62.30
18749;BME280;9503;53.560;10.246;2024-02-28T04:16:09;101261.34;;;9.63;62.27
18749;BME280;9503;53.560;10.246;2024-02-28T04:18:36;101261.59;;;10.10;62.47
18749;BME280;9503;53.560;10.246;2024-02-28T04:21:03;101263.31;;;9.82;61.96
18749;BME280;9503;53.560;10.246;2024-02-28T04:23:31;101257.84;;;10.05;61.61
18749;BME280;9503;53.560;10.246;2024-02-28T04:25:57;101251.38;;;10.40;60.65
18749;BME280;9503;53.560;10.246;2024-02-28T04:28:24;101255.41;;;9.92;61.60
18749;BME280;9503;53.560;10.246;2024-02-28T04:30:50;101262.16;;;10.34;60.78
18749;BME280;9503;53.560;10.246;2024-02-28T04:33:17;101259.56;;;10.64;60.23
18749;BME280;9503;53.560;10.246;2024-02-28T04:35:44;101251.63;;;10.59;60.40
18749;BME280;9503;53.560;10.246;2024-02-28T04:38:10;101264.97;;;10.68;60.75
18749;BME280;9503;53.560;10.246;2024-02-28T04:40:38;101260.19;;;10.60;60.36
18749;BME280;9503;53.560;10.246;2024-02-28T04:43:05;101257.78;;;10.63;60.62
18749;BME280;9503;53.560;10.246;2024-02-28T04:45:31;101266.44;;;10.65;59.96
18749;BME280;9503;53.560;10.246;2024-02-28T04:47:58;101264.88;;;10.67;60.28
18749;BME280;9503;53.560;10.246;2024-02-28T04:50:24;101274.69;;;10.74;59.95
18749;BME280;9503;53.560;10.246;2024-02-28T04:52:51;101268.25;;;10.66;60.63
18749;BME280;9503;53.560;10.246;2024-02-28T04:55:18;101281.84;;;10.65;60.85
18749;BME280;9503;53.560;10.246;2024-02-28T04:57:46;101281.84;;;10.65;60.82
18749;BME280;9503;53.560;10.246;2024-02-28T05:00:13;101275.38;;;10.57;60.76
18749;BME280;9503;53.560;10.246;2024-02-28T05:02:39;101275.81;;;10.64;60.30
18749;BME280;9503;53.560;10.246;2024-02-28T05:05:06;101285.13;;;10.62;61.19
18749;BME280;9503;53.560;10.246;2024-02-28T05:07:33;101284.06;;;10.73;60.95
18749;BME280;9503;53.560;10.246;2024-02-28T05:09:58;101283.50;;;10.64;61.16
18749;BME280;9503;53.560;10.246;2024-02-28T05:12:25;101282.91;;;10.68;60.24
18749;BME280;9503;53.560;10.246;2024-02-28T05:14:53;101281.84;;;10.50;61.27
18749;BME280;9503;53.560;10.246;2024-02-28T05:17:19;101278.22;;;10.61;61.33
18749;BME280;9503;53.560;10.246;2024-02-28T05:19:46;101283.81;;;10.39;61.82
18749;BME280;9503;53.560;10.246;2024-02-28T05:22:13;101280.97;;;10.49;61.26
18749;BME280;9503;53.560;10.246;2024-02-28T05:24:39;101274.63;;;10.58;60.68
18749;BME280;9503;53.560;10.246;2024-02-28T05:27:08;101278.97;;;10.29;61.79
18749;BME280;9503;53.560;10.246;2024-02-28T05:29:35;101281.69;;;10.47;61.22
18749;BME280;9503;53.560;10.246;2024-02-28T05:32:04;101279.56;;;10.55;60.67
18749;BME280;9503;53.560;10.246;2024-02-28T05:34:31;101275.47;;;10.14;61.63
18749;BME280;9503;53.560;10.246;2024-02-28T05:36:57;101284.75;;;10.56;61.42
18749;BME280;9503;53.560;10.246;2024-02-28T05:39:26;101283.44;;;10.48;60.73
18749;BME280;9503;53.560;10.246;2024-02-28T05:41:54;101287.25;;;10.55;61.25
18749;BME280;9503;53.560;10.246;2024-02-28T05:44:21;101291.84;;;10.45;61.12
18749;BME280;9503;53.560;10.246;2024-02-28T05:46:47;101301.59;;;10.36;61.36
18749;BME280;9503;53.560;10.246;2024-02-28T05:49:15;101302.72;;;10.56;61.03
18749;BME280;9503;53.560;10.246;2024-02-28T05:51:42;101304.75;;;10.62;60.63
18749;BME280;9503;53.560;10.246;2024-02-28T05:54:10;101302.34;;;10.35;61.76
18749;BME280;9503;53.560;10.246;2024-02-28T05:56:36;101302.13;;;10.45;62.16
18749;BME280;9503;53.560;10.246;2024-02-28T05:59:03;101304.03;;;10.35;62.44
18749;BME280;9503;53.560;10.246;2024-02-28T06:01:30;101314.28;;;10.35;62.23
18749;BME280;9503;53.560;10.246;2024-02-28T06:03:56;101308.19;;;10.33;62.85
18749;BME280;9503;53.560;10.246;2024-02-28T06:06:24;101310.59;;;10.30;62.98
18749;BME280;9503;53.560;10.246;2024-02-28T06:08:51;101310.16;;;10.51;62.52
18749;BME280;9503;53.560;10.246;2024-02-28T06:11:18;101310.31;;;10.55;62.54
18749;BME280;9503;53.560;10.246;2024-02-28T06:13:45;101312.72;;;10.51;62.16
18749;BME280;9503;53.560;10.246;2024-02-28T06:16:13;101315.66;;;10.43;62.73
18749;BME280;9503;53.560;10.246;2024-02-28T06:18:40;101317.28;;;10.28;62.67
18749;BME280;9503;53.560;10.246;2024-02-28T06:21:07;101309.78;;;10.31;62.91
18749;BME280;9503;53.560;10.246;2024-02-28T06:23:35;101317.50;;;10.45;61.82
18749;BME280;9503;53.560;10.246;2024-02-28T06:26:02;101313.84;;;10.42;62.17
18749;BME280;9503;53.560;10.246;2024-02-28T06:28:28;101316.47;;;10.14;62.92
18749;BME280;9503;53.560;10.246;2024-02-28T06:30:55;101325.78;;;10.41;61.69
18749;BME280;9503;53.560;10.246;2024-02-28T06:33:21;101329.00;;;10.52;61.70
18749;BME280;9503;53.560;10.246;2024-02-28T06:35:48;101326.06;;;10.31;62.15
18749;BME280;9503;53.560;10.246;2024-02-28T06:38:15;101331.63;;;10.24;63.15
18749;BME280;9503;53.560;10.246;2024-02-28T06:40:42;101337.47;;;10.51;62.42
18749;BME280;9503;53.560;10.246;2024-02-28T06:43:09;101336.81;;;9.97;63.28
18749;BME280;9503;53.560;10.246;2024-02-28T06:45:36;101341.53;;;10.19;62.21
18749;BME280;9503;53.560;10.246;2024-02-28T06:48:03;101343.06;;;10.16;62.48
18749;BME280;9503;53.560;10.246;2024-02-28T06:50:29;101348.38;;;9.91;63.10
18749;BME280;9503;53.560;10.246;2024-02-28T06:52:56;101346.56;;;10.46;62.59
18749;BME280;9503;53.560;10.246;2024-02-28T06:55:23;101347.28;;;10.43;61.64
18749;BME280;9503;53.560;10.246;2024-02-28T06:57:51;101355.88;;;10.73;61.77
18749;BME280;9503;53.560;10.246;2024-02-28T07:00:18;101358.94;;;10.83;61.92
18749;BME280;9503;53.560;10.246;2024-02-28T07:02:45;101355.06;;;10.45;61.69
18749;BME280;9503;53.560;10.246;2024-02-28T07:05:12;101357.56;;;10.58;61.65
18749;BME280;9503;53.560;10.246;2024-02-28T07:07:39;101365.06;;;10.70;62.23
18749;BME280;9503;53.560;10.246;2024-02-28T07:10:06;101363.13;;;10.66;61.60
18749;BME280;9503;53.560;10.246;2024-02-28T07:12:36;101365.84;;;10.69;61.21
18749;BME280;9503;53.560;10.246;2024-02-28T07:15:05;101365.69;;;10.66;61.64
18749;BME280;9503;53.560;10.246;2024-02-28T07:17:32;101369.94;;;10.80;61.39
18749;BME280;9503;53.560;10.246;2024-02-28T07:19:58;101367.00;;;10.59;62.23
18749;BME280;9503;53.560;10.246;2024-02-28T07:22:25;101367.97;;;10.76;62.07
18749;BME280;9503;53.560;10.246;2024-02-28T07:24:51;101369.91;;;11.10;60.80
18749;BME280;9503;53.560;10.246;2024-02-28T07:27:18;101376.53;;;10.91;60.87
18749;BME280;9503;53.560;10.246;2024-02-28T07:29:44;101377.59;;;11.10;61.21
18749;BME280;9503;53.560;10.246;2024-02-28T07:32:12;101377.22;;;11.18;60.76
18749;BME280;9503;53.560;10.246;2024-02-28T07:34:39;101386.88;;;10.93;61.74
18749;BME280;9503;53.560;10.246;2024-02-28T07:37:06;101378.25;;;11.22;60.77
18749;BME280;9503;53.560;10.246;2024-02-28T07:39:32;101376.97;;;11.14;60.52
18749;BME280;9503;53.560;10.246;2024-02-28T07:41:59;101376.47;;;10.75;61.35
18749;BME280;9503;53.560;10.246;2024-02-28T07:44:26;101377.69;;;11.11;61.31
18749;BME280;9503;53.560;10.246;2024-02-28T07:46:56;101372.63;;;11.13;60.80
18749;BME280;9503;53.560;10.246;2024-02-28T07:49:24;101375.34;;;11.16;60.54
18749;BME280;9503;53.560;10.246;2024-02-28T07:51:51;101373.19;;;10.63;62.15
18749;BME280;9503;53.560;10.246;2024-02-28T07:54:17;101374.03;;;11.07;60.89
18749;BME280;9503;53.560;10.246;2024-02-28T07:56:44;101381.75;;;10.93;61.04
18749;BME280;9503;53.560;10.246;2024-02-28T07:59:10;101378.66;;;10.98;61.32
18749;BME280;9503;53.560;10.246;2024-02-28T08:01:37;101374.19;;;10.94;61.19
18749;BME280;9503;53.560;10.246;2024-02-28T08:04:05;101371.03;;;11.00;60.73
18749;BME280;9503;53.560;10.246;2024-02-28T08:06:32;101385.00;;;11.20;61.01
18749;BME280;9503;53.560;10.246;2024-02-28T08:08:59;101369.56;;;11.34;60.46
18749;BME280;9503;53.560;10.246;2024-02-28T08:11:26;101376.59;;;11.22;61.17
18749;BME280;9503;53.560;10.246;2024-02-28T08:13:53;101382.28;;;11.17;60.72
18749;BME280;9503;53.560;10.246;2024-02-28T08:16:19;101388.19;;;11.16;60.79
18749;BME280;9503;53.560;10.246;2024-02-28T08:18:46;101376.69;;;11.55;60.47
18749;BME280;9503;53.560;10.246;2024-02-28T08:21:13;101385.03;;;11.05;61.67
18749;BME280;9503;53.560;10.246;2024-02-28T08:23:41;101382.28;;;11.17;60.79
18749;BME280;9503;53.560;10.246;2024-02-28T08:26:07;101380.78;;;11.68;60.33
18749;BME280;9503;53.560;10.246;2024-02-28T08:28:34;101394.66;;;11.24;59.98
18749;BME280;9503;53.560;10.246;2024-02-28T08:31:00;101388.34;;;11.33;61.51
18749;BME280;9503;53.560;10.246;2024-02-28T08:33:27;101392.81;;;10.62;62.89
18749;BME280;9503;53.560;10.246;2024-02-28T08:35:54;101393.25;;;9.84;63.22
18749;BME280;9503;53.560;10.246;2024-02-28T08:38:20;101389.28;;;10.75;63.34
18749;BME280;9503;53.560;10.246;2024-02-28T08:40:48;101401.47;;;10.49;62.93
18749;BME280;9503;53.560;10.246;2024-02-28T08:43:15;101399.59;;;10.47;63.85
18749;BME280;9503;53.560;10.246;2024-02-28T08:45:41;101398.63;;;10.45;63.36
18749;BME280;9503;53.560;10.246;2024-02-28T08:48:08;101401.88;;;11.31;61.57
18749;BME280;9503;53.560;10.246;2024-02-28T08:50:35;101393.03;;;9.81;64.49
18749;BME280;9503;53.560;10.246;2024-02-28T08:53:02;101395.72;;;10.54;63.63
18749;BME280;9503;53.560;10.246;2024-02-28T08:55:28;101395.09;;;11.79;61.84
18749;BME280;9503;53.560;10.246;2024-02-28T08:57:57;101395.81;;;11.14;62.62
18749;BME280;9503;53.560;10.246;2024-02-28T09:00:24;101400.72;;;10.95;62.89
18749;BME280;9503;53.560;10.246;2024-02-28T09:02:50;101395.13;;;9.74;65.94
18749;BME280;9503;53.560;10.246;2024-02-28T09:05:17;101398.22;;;10.52;65.30
18749;BME280;9503;53.560;10.246;2024-02-28T09:07:44;101396.03;;;10.02;64.81
18749;BME280;9503;53.560;10.246;2024-02-28T09:10:11;101391.63;;;10.42;64.80
18749;BME280;9503;53.560;10.246;2024-02-28T09:12:38;101404.09;;;11.40;63.76
18749;BME280;9503;53.560;10.246;2024-02-28T09:15:07;101407.75;;;11.14;62.64
18749;BME280;9503;53.560;10.246;2024-02-28T09:17:33;101407.94;;;11.62;63.35
18749;BME280;9503;53.560;10.246;2024-02-28T09:20:00;101407.94;;;11.62;63.11
18749;BME280;9503;53.560;10.246;2024-02-28T09:22:29;101403.16;;;10.64;65.55
18749;BME280;9503;53.560;10.246;2024-02-28T09:24:56;101401.25;;;10.32;66.48
18749;BME280;9503;53.560;10.246;2024-02-28T09:27:22;101409.00;;;10.76;65.07
18749;BME280;9503;53.560;10.246;2024-02-28T09:29:50;101408.41;;;10.80;63.79
18749;BME280;9503;53.560;10.246;2024-02-28T09:32:17;101411.00;;;10.37;64.48
18749;BME280;9503;53.560;10.246;2024-02-28T09:34:44;101412.34;;;10.45;65.74
18749;BME280;9503;53.560;10.246;2024-02-28T09:37:11;101411.63;;;12.31;62.71
18749;BME280;9503;53.560;10.246;2024-02-28T09:39:38;101418.91;;;12.90;60.71
18749;BME280;9503;53.560;10.246;2024-02-28T09:42:06;101418.63;;;12.17;60.94
18749;BME280;9503;53.560;10.246;2024-02-28T09:44:33;101414.28;;;12.33;62.19
18749;BME280;9503;53.560;10.246;2024-02-28T09:47:00;101410.06;;;12.67;60.34
18749;BME280;9503;53.560;10.246;2024-02-28T09:49:28;101411.75;;;13.19;59.43
18749;BME280;9503;53.560;10.246;2024-02-28T09:51:58;101418.47;;;13.69;58.67
18749;BME280;9503;53.560;10.246;2024-02-28T09:54:25;101428.19;;;12.87;58.59
18749;BME280;9503;53.560;10.246;2024-02-28T09:56:51;101421.44;;;12.22;61.49
18749;BME280;9503;53.560;10.246;2024-02-28T09:59:18;101421.44;;;12.22;62.41
18749;BME280;9503;53.560;10.246;2024-02-28T10:01:49;101413.03;;;13.45;59.84
18749;BME280;9503;53.560;10.246;2024-02-28T10:04:20;101404.41;;;14.19;58.58
18749;BME280;9503;53.560;10.246;2024-02-28T10:06:48;101407.00;;;13.26;59.71
18749;BME280;9503;53.560;10.246;2024-02-28T10:09:15;101407.91;;;13.11;58.41
18749;BME280;9503;53.560;10.246;2024-02-28T10:11:42;101407.97;;;13.83;58.27
18749;BME280;9503;53.560;10.246;2024-02-28T10:14:09;101408.63;;;11.60;60.10
18749;BME280;9503;53.560;10.246;2024-02-28T10:16:36;101413.63;;;12.53;61.77
18749;BME280;9503;53.560;10.246;2024-02-28T10:19:05;101416.19;;;12.04;62.21
18749;BME280;9503;53.560;10.246;2024-02-28T10:21:31;101420.44;;;13.57;59.73
18749;BME280;9503;53.560;10.246;2024-02-28T10:24:00;101419.13;;;13.47;58.31
18749;BME280;9503;53.560;10.246;2024-02-28T10:26:26;101420.44;;;13.57;59.38
18749;BME280;9503;53.560;10.246;2024-02-28T10:28:55;101417.91;;;13.05;58.24
18749;BME280;9503;53.560;10.246;2024-02-28T10:31:21;101425.69;;;13.40;60.35
18749;BME280;9503;53.560;10.246;2024-02-28T10:33:49;101424.88;;;14.16;58.85
18749;BME280;9503;53.560;10.246;2024-02-28T10:36:16;101429.31;;;14.57;57.09
18749;BME280;9503;53.560;10.246;2024-02-28T10:38:43;101422.97;;;13.55;58.63
18749;BME280;9503;53.560;10.246;2024-02-28T10:41:11;101427.00;;;14.05;58.84
18749;BME280;9503;53.560;10.246;2024-02-28T10:43:39;101429.13;;;12.71;60.14
18749;BME280;9503;53.560;10.246;2024-02-28T10:46:08;101437.94;;;14.19;58.18
18749;BME280;9503;53.560;10.246;2024-02-28T10:48:35;101441.97;;;14.91;56.30
18749;BME280;9503;53.560;10.246;2024-02-28T10:51:03;101440.50;;;13.10;59.34
18749;BME280;9503;53.560;10.246;2024-02-28T10:53:34;101439.28;;;13.20;60.34
18749;BME280;9503;53.560;10.246;2024-02-28T10:56:03;101445.34;;;12.70;60.36
18749;BME280;9503;53.560;10.246;2024-02-28T10:58:35;101444.19;;;15.03;57.28
18749;BME280;9503;53.560;10.246;2024-02-28T11:01:02;101447.72;;;15.48;54.83
18749;BME280;9503;53.560;10.246;2024-02-28T11:03:30;101436.03;;;16.23;54.11
18749;BME280;9503;53.560;10.246;2024-02-28T11:05:56;101439.19;;;16.40;53.08
18749;BME280;9503;53.560;10.246;2024-02-28T11:08:24;101441.28;;;16.50;52.55
18749;BME280;9503;53.560;10.246;2024-02-28T11:10:55;101433.56;;;13.61;57.02
18749;BME280;9503;53.560;10.246;2024-02-28T11:13:22;101431.44;;;15.71;54.63
18749;BME280;9503;53.560;10.246;2024-02-28T11:15:50;101431.63;;;13.57;58.04
18749;BME280;9503;53.560;10.246;2024-02-28T11:18:17;101433.41;;;15.56;55.07
18749;BME280;9503;53.560;10.246;2024-02-28T11:20:43;101438.34;;;15.07;55.03
18749;BME280;9503;53.560;10.246;2024-02-28T11:23:11;101425.56;;;13.37;57.94
18749;BME280;9503;53.560;10.246;2024-02-28T11:25:39;101425.75;;;14.74;56.90
18749;BME280;9503;53.560;10.246;2024-02-28T11:28:06;101425.16;;;14.22;57.74
18749;BME280;9503;53.560;10.246;2024-02-28T11:30:33;101427.63;;;13.44;59.48
18749;BME280;9503;53.560;10.246;2024-02-28T11:33:01;101429.19;;;14.54;57.56
18749;BME280;9503;53.560;10.246;2024-02-28T11:35:28;101432.75;;;13.99;58.16
18749;BME280;9503;53.560;10.246;2024-02-28T11:37:55;101433.66;;;14.19;58.39
18749;BME280;9503;53.560;10.246;2024-02-28T11:40:22;101431.44;;;14.46;57.19
18749;BME280;9503;53.560;10.246;2024-02-28T11:42:50;101428.91;;;14.28;57.86
18749;BME280;9503;53.560;10.246;2024-02-28T11:45:17;101431.16;;;15.64;55.92
18749;BME280;9503;53.560;10.246;2024-02-28T11:47:44;101429.91;;;15.99;55.18
18749;BME280;9503;53.560;10.246;2024-02-28T11:50:12;101432.69;;;15.38;54.68
18749;BME280;9503;53.560;10.246;2024-02-28T11:52:40;101422.91;;;14.47;56.79
18749;BME280;9503;53.560;10.246;2024-02-28T11:55:07;101436.16;;;14.97;55.98
18749;BME280;9503;53.560;10.246;2024-02-28T11:57:33;101432.00;;;14.79;57.32
18749;BME280;9503;53.560;10.246;2024-02-28T12:00:04;101433.84;;;14.43;57.04
18749;BME280;9503;53.560;10.246;2024-02-28T12:02:32;101433.78;;;14.61;57.41
18749;BME280;9503;53.560;10.246;2024-02-28T12:05:00;101434.22;;;14.70;57.31
18749;BME280;9503;53.560;10.246;2024-02-28T12:07:28;101430.94;;;15.16;57.49
18749;BME280;9503;53.560;10.246;2024-02-28T12:09:55;101432.28;;;14.66;56.73
18749;BME280;9503;53.560;10.246;2024-02-28T12:12:22;101430.31;;;15.01;57.14
18749;BME280;9503;53.560;10.246;2024-02-28T12:14:50;101426.75;;;15.84;55.26
18749;BME280;9503;53.560;10.246;2024-02-28T12:17:16;101427.38;;;16.00;54.81
18749;BME280;9503;53.560;10.246;2024-02-28T12:19:44;101427.34;;;15.99;55.07
18749;BME280;9503;53.560;10.246;2024-02-28T12:22:10;101417.84;;;16.70;53.60
18749;BME280;9503;53.560;10.246;2024-02-28T12:24:38;101420.28;;;15.50;54.35
18749;BME280;9503;53.560;10.246;2024-02-28T12:27:05;101415.31;;;15.13;56.19
18749;BME280;9503;53.560;10.246;2024-02-28T12:29:32;101418.06;;;17.03;53.96
18749;BME280;9503;53.560;10.246;2024-02-28T12:31:59;101408.75;;;17.08;52.17
18749;BME280;9503;53.560;10.246;2024-02-28T12:34:25;101408.25;;;15.73;54.95
18749;BME280;9503;53.560;10.246;2024-02-28T12:36:52;101415.16;;;14.68;57.41
18749;BME280;9503;53.560;10.246;2024-02-28T12:39:19;101408.94;;;14.63;57.72
18749;BME280;9503;53.560;10.246;2024-02-28T12:41:49;101402.44;;;14.32;58.46
18749;BME280;9503;53.560;10.246;2024-02-28T12:44:16;101398.13;;;13.94;59.46
18749;BME280;9503;53.560;10.246;2024-02-28T12:46:42;101398.31;;;14.97;57.37
18749;BME280;9503;53.560;10.246;2024-02-28T12:49:09;101396.59;;;14.56;57.67
18749;BME280;9503;53.560;10.246;2024-02-28T12:51:37;101394.41;;;14.65;57.72